sensor_id;sensor_type;location;lat;lon;timestamp;pressure;altitude;pressure_sealevel;temperature;humidity
80198;BME280;69517;52.030;7.106;2023-05-19T00:02:14;101789.00;;;22.00;65.86
80198;BME280;69517;52.030;7.106;2023-05-19T00:04:42;101791.88;;;21.96;66.16
80198;BME280;69517;52.030;7.106;2023-05-19T00:07:09;101796.31;;;21.95;66.04
80198;BME280;69517;52.030;7.106;2023-05-19T00:09:35;101792.56;;;21.99;66.26
80198;BME280;69517;52.030;7.106;2023-05-19T00:12:04;101791.03;;;21.95;66.38
80198;BME280;69517;52.030;7.106;2023-05-19T00:14:30;101786.59;;;21.96;66.19
80198;BME280;69517;52.030;7.106;2023-05-19T00:16:57;101784.81;;;21.96;66.13
80198;BME280;69517;52.030;7.106;2023-05-19T00:19:25;101788.41;;;21.95;66.15
80198;BME280;69517;52.030;7.106;2023-05-19T00:21:56;101789.16;;;21.97;66.24
80198;BME280;69517;52.030;7.106;2023-05-19T00:24:22;101787.44;;;21.96;66.01
80198;BME280;69517;52.030;7.106;2023-05-19T00:26:48;101783.72;;;22.00;66.13
80198;BME280;69517;52.030;7.106;2023-05-19T00:29:16;101785.81;;;21.94;66.12
80198;BME280;69517;52.030;7.106;2023-05-19T00:31:43;101780.72;;;21.91;66.27
80198;BME280;69517;52.030;7.106;2023-05-19T00:34:09;101785.31;;;21.87;66.15
80198;BME280;69517;52.030;7.106;2023-05-19T00:36:35;101784.97;;;21.93;66.25
80198;BME280;69517;52.030;7.106;2023-05-19T00:39:02;101780.50;;;21.95;66.30
80198;BME280;69517;52.030;7.106;2023-05-19T00:41:28;101776.38;;;21.90;66.16
80198;BME280;69517;52.030;7.106;2023-05-19T00:43:54;101784.38;;;21.88;66.23
80198;BME280;69517;52.030;7.106;2023-05-19T00:46:22;101775.69;;;21.86;66.43
80198;BME280;69517;52.030;7.106;2023-05-19T00:48:48;101776.69;;;21.83;66.32
80198;BME280;69517;52.030;7.106;2023-05-19T00:51:14;101780.81;;;21.89;66.23
80198;BME280;69517;52.030;7.106;2023-05-19T00:53:41;101778.25;;;21.88;66.30
80198;BME280;69517;52.030;7.106;2023-05-19T00:56:12;101780.72;;;21.91;66.21
80198;BME280;69517;52.030;7.106;2023-05-19T00:58:38;101784.53;;;21.85;66.20
80198;BME280;69517;52.030;7.106;2023-05-19T01:01:05;101779.25;;;21.85;66.17
80198;BME280;69517;52.030;7.106;2023-05-19T01:03:34;101781.16;;;21.83;66.31
80198;BME280;69517;52.030;7.106;2023-05-19T01:06:00;101781.03;;;21.84;66.28
80198;BME280;69517;52.030;7.106;2023-05-19T01:08:29;101783.94;;;21.80;66.26
80198;BME280;69517;52.030;7.106;2023-05-19T01:10:56;101778.41;;;21.84;66.33
80198;BME280;69517;52.030;7.106;2023-05-19T01:13:22;101774.19;;;21.82;66.34
80198;BME280;69517;52.030;7.106;2023-05-19T01:15:53;101774.34;;;21.79;66.38
80198;BME280;69517;52.030;7.106;2023-05-19T01:18:23;101780.28;;;21.82;66.36
80198;BME280;69517;52.030;7.106;2023-05-19T01:20:58;101775.09;;;21.81;66.52
80198;BME280;69517;52.030;7.106;2023-05-19T01:23:32;101770.00;;;21.78;66.44
80198;BME280;69517;52.030;7.106;2023-05-19T01:26:08;101766.63;;;21.76;66.66
80198;BME280;69517;52.030;7.106;2023-05-19T01:28:52;101762.88;;;21.80;66.29
80198;BME280;69517;52.030;7.106;2023-05-19T01:31:22;101762.81;;;21.81;66.31
80198;BME280;69517;52.030;7.106;2023-05-19T01:33:50;101757.78;;;21.77;66.41
80198;BME280;69517;52.030;7.106;2023-05-19T01:36:17;101770.09;;;21.76;66.51
80198;BME280;69517;52.030;7.106;2023-05-19T01:38:44;101758.72;;;21.76;66.50
80198;BME280;69517;52.030;7.106;2023-05-19T01:41:11;101760.56;;;21.74;66.42
80198;BME280;69517;52.030;7.106;2023-05-19T01:43:37;101766.63;;;21.76;66.33
80198;BME280;69517;52.030;7.106;2023-05-19T01:46:04;101769.25;;;21.76;66.39
80198;BME280;69517;52.030;7.106;2023-05-19T01:48:32;101769.25;;;21.76;66.42
80198;BME280;69517;52.030;7.106;2023-05-19T01:50:59;101780.78;;;21.73;66.74
80198;BME280;69517;52.030;7.106;2023-05-19T01:53:26;101764.06;;;21.74;66.53
80198;BME280;69517;52.030;7.106;2023-05-19T01:55:53;101772.03;;;21.73;66.52
80198;BME280;69517;52.030;7.106;2023-05-19T01:58:21;101772.97;;;21.72;66.44
80198;BME280;69517;52.030;7.106;2023-05-19T02:00:55;101767.69;;;21.72;66.42
80198;BME280;69517;52.030;7.106;2023-05-19T02:03:25;101766.03;;;21.71;66.44
80198;BME280;69517;52.030;7.106;2023-05-19T02:05:57;101762.63;;;21.69;66.96
80198;BME280;69517;52.030;7.106;2023-05-19T02:08:26;101772.28;;;21.68;66.52
80198;BME280;69517;52.030;7.106;2023-05-19T02:10:54;101767.09;;;21.67;66.62
80198;BME280;69517;52.030;7.106;2023-05-19T02:13:23;101775.00;;;21.67;66.75
80198;BME280;69517;52.030;7.106;2023-05-19T02:15:54;101780.25;;;21.67;66.71
80198;BME280;69517;52.030;7.106;2023-05-19T02:18:25;101769.31;;;21.74;66.71
80198;BME280;69517;52.030;7.106;2023-05-19T02:20:55;101781.97;;;21.68;66.84
80198;BME280;69517;52.030;7.106;2023-05-19T02:23:21;101779.50;;;21.65;66.73
80198;BME280;69517;52.030;7.106;2023-05-19T02:25:47;101781.38;;;21.63;66.81
80198;BME280;69517;52.030;7.106;2023-05-19T02:28:14;101770.59;;;21.67;66.55
80198;BME280;69517;52.030;7.106;2023-05-19T02:30:40;101769.91;;;21.64;66.63
80198;BME280;69517;52.030;7.106;2023-05-19T02:33:06;101768.03;;;21.66;66.69
80198;BME280;69517;52.030;7.106;2023-05-19T02:35:35;101767.34;;;21.62;66.65
80198;BME280;69517;52.030;7.106;2023-05-19T02:38:02;101768.34;;;21.60;66.80
80198;BME280;69517;52.030;7.106;2023-05-19T02:40:29;101765.50;;;21.64;66.58
80198;BME280;69517;52.030;7.106;2023-05-19T02:42:55;101767.34;;;21.62;66.70
80198;BME280;69517;52.030;7.106;2023-05-19T02:45:21;101758.28;;;21.68;66.64
80198;BME280;69517;52.030;7.106;2023-05-19T02:47:47;101751.66;;;21.61;66.78
80198;BME280;69517;52.030;7.106;2023-05-19T02:50:14;101750.56;;;21.65;66.73
80198;BME280;69517;52.030;7.106;2023-05-19T02:52:40;101753.41;;;21.60;66.72
80198;BME280;69517;52.030;7.106;2023-05-19T02:55:08;101754.28;;;21.61;66.73
80198;BME280;69517;52.030;7.106;2023-05-19T02:57:40;101754.19;;;21.62;66.62
80198;BME280;69517;52.030;7.106;2023-05-19T03:00:07;101747.50;;;21.57;66.69
80198;BME280;69517;52.030;7.106;2023-05-19T03:02:34;101748.88;;;21.64;66.70
80198;BME280;69517;52.030;7.106;2023-05-19T03:05:00;101749.19;;;21.58;66.81
80198;BME280;69517;52.030;7.106;2023-05-19T03:07:27;101747.50;;;21.57;66.76
80198;BME280;69517;52.030;7.106;2023-05-19T03:09:54;101751.03;;;21.56;66.72
80198;BME280;69517;52.030;7.106;2023-05-19T03:12:21;101757.16;;;21.56;66.95
80198;BME280;69517;52.030;7.106;2023-05-19T03:14:48;101750.19;;;21.55;66.82
80198;BME280;69517;52.030;7.106;2023-05-19T03:17:14;101759.72;;;21.58;67.02
80198;BME280;69517;52.030;7.106;2023-05-19T03:19:41;101755.19;;;21.60;66.67
80198;BME280;69517;52.030;7.106;2023-05-19T03:22:07;101763.28;;;21.57;66.80
80198;BME280;69517;52.030;7.106;2023-05-19T03:24:33;101760.72;;;21.55;66.78
80198;BME280;69517;52.030;7.106;2023-05-19T03:27:00;101763.19;;;21.58;66.63
80198;BME280;69517;52.030;7.106;2023-05-19T03:29:27;101758.47;;;21.65;66.59
80198;BME280;69517;52.030;7.106;2023-05-19T03:31:54;101754.66;;;21.70;66.34
80198;BME280;69517;52.030;7.106;2023-05-19T03:34:20;101750.72;;;21.77;66.13
80198;BME280;69517;52.030;7.106;2023-05-19T03:36:47;101747.75;;;21.83;65.89
80198;BME280;69517;52.030;7.106;2023-05-19T03:39:14;101750.03;;;21.90;65.52
80198;BME280;69517;52.030;7.106;2023-05-19T03:41:40;101748.97;;;21.94;65.41
80198;BME280;69517;52.030;7.106;2023-05-19T03:44:07;101756.69;;;21.97;65.39
80198;BME280;69517;52.030;7.106;2023-05-19T03:46:34;101755.50;;;22.02;65.30
80198;BME280;69517;52.030;7.106;2023-05-19T03:49:00;101764.25;;;22.03;65.36
80198;BME280;69517;52.030;7.106;2023-05-19T03:51:27;101756.28;;;22.04;65.13
80198;BME280;69517;52.030;7.106;2023-05-19T03:53:53;101763.19;;;22.07;65.18
80198;BME280;69517;52.030;7.106;2023-05-19T03:56:20;101750.84;;;22.07;65.16
80198;BME280;69517;52.030;7.106;2023-05-19T03:58:49;101763.00;;;22.10;65.09
80198;BME280;69517;52.030;7.106;2023-05-19T04:01:15;101759.34;;;22.12;65.06
80198;BME280;69517;52.030;7.106;2023-05-19T04:03:42;101761.97;;;22.12;65.11
80198;BME280;69517;52.030;7.106;2023-05-19T04:06:09;101761.06;;;22.13;65.05
80198;BME280;69517;52.030;7.106;2023-05-19T04:08:35;101761.97;;;22.12;65.12
80198;BME280;69517;52.030;7.106;2023-05-19T04:11:01;101763.69;;;22.13;65.26
80198;BME280;69517;52.030;7.106;2023-05-19T04:13:27;101766.22;;;22.15;65.21
80198;BME280;69517;52.030;7.106;2023-05-19T04:15:54;101764.44;;;22.15;65.00
80198;BME280;69517;52.030;7.106;2023-05-19T04:18:20;101771.47;;;22.15;65.07
80198;BME280;69517;52.030;7.106;2023-05-19T04:20:48;101775.81;;;22.16;65.16
80198;BME280;69517;52.030;7.106;2023-05-19T04:23:15;101774.88;;;22.17;65.24
80198;BME280;69517;52.030;7.106;2023-05-19T04:25:41;101774.88;;;22.17;65.33
80198;BME280;69517;52.030;7.106;2023-05-19T04:28:07;101770.47;;;22.17;65.21
80198;BME280;69517;52.030;7.106;2023-05-19T04:30:34;101774.81;;;22.18;65.07
80198;BME280;69517;52.030;7.106;2023-05-19T04:33:00;101771.97;;;22.21;65.00
80198;BME280;69517;52.030;7.106;2023-05-19T04:35:28;101776.41;;;22.21;65.09
80198;BME280;69517;52.030;7.106;2023-05-19T04:37:56;101778.94;;;22.22;65.11
80198;BME280;69517;52.030;7.106;2023-05-19T04:40:22;101774.53;;;22.23;65.02
80198;BME280;69517;52.030;7.106;2023-05-19T04:42:49;101772.91;;;22.20;65.29
80198;BME280;69517;52.030;7.106;2023-05-19T04:45:16;101768.50;;;22.21;65.16
80198;BME280;69517;52.030;7.106;2023-05-19T04:47:42;101765.72;;;22.24;65.13
80198;BME280;69517;52.030;7.106;2023-05-19T04:50:10;101780.66;;;22.23;65.24
80198;BME280;69517;52.030;7.106;2023-05-19T04:52:37;101771.97;;;22.21;65.43
80198;BME280;69517;52.030;7.106;2023-05-19T04:55:05;101778.03;;;22.23;65.24
80198;BME280;69517;52.030;7.106;2023-05-19T04:57:31;101781.59;;;22.22;65.16
80198;BME280;69517;52.030;7.106;2023-05-19T04:59:57;101780.66;;;22.23;65.11
80198;BME280;69517;52.030;7.106;2023-05-19T05:02:24;101782.44;;;22.23;65.15
80198;BME280;69517;52.030;7.106;2023-05-19T05:04:52;101774.53;;;22.23;65.36
80198;BME280;69517;52.030;7.106;2023-05-19T05:07:18;101769.19;;;22.24;65.34
80198;BME280;69517;52.030;7.106;2023-05-19T05:09:45;101775.31;;;22.25;65.19
80198;BME280;69517;52.030;7.106;2023-05-19T05:12:14;101773.59;;;22.24;65.15
80198;BME280;69517;52.030;7.106;2023-05-19T05:14:40;101778.94;;;22.22;65.40
80198;BME280;69517;52.030;7.106;2023-05-19T05:17:07;101768.59;;;22.19;65.53
80198;BME280;69517;52.030;7.106;2023-05-19T05:19:34;101774.97;;;22.15;65.61
80198;BME280;69517;52.030;7.106;2023-05-19T05:22:01;101766.56;;;22.24;65.42
80198;BME280;69517;52.030;7.106;2023-05-19T05:24:28;101766.38;;;22.27;65.19
80198;BME280;69517;52.030;7.106;2023-05-19T05:26:55;101766.88;;;22.34;65.13
80198;BME280;69517;52.030;7.106;2023-05-19T05:29:24;101770.19;;;22.38;65.03
80198;BME280;69517;52.030;7.106;2023-05-19T05:31:50;101770.09;;;22.39;65.10
80198;BME280;69517;52.030;7.106;2023-05-19T05:34:16;101762.09;;;22.41;65.16
80198;BME280;69517;52.030;7.106;2023-05-19T05:36:43;101764.72;;;22.41;65.63
80198;BME280;69517;52.030;7.106;2023-05-19T05:39:09;101769.94;;;22.42;65.72
80198;BME280;69517;52.030;7.106;2023-05-19T05:41:35;101767.38;;;22.41;65.77
80198;BME280;69517;52.030;7.106;2023-05-19T05:44:02;101763.03;;;22.40;65.71
80198;BME280;69517;52.030;7.106;2023-05-19T05:46:30;101761.16;;;22.42;66.04
80198;BME280;69517;52.030;7.106;2023-05-19T05:48:56;101762.88;;;22.43;65.91
80198;BME280;69517;52.030;7.106;2023-05-19T05:51:23;101758.53;;;22.42;66.25
80198;BME280;69517;52.030;7.106;2023-05-19T05:53:50;101765.16;;;22.49;66.31
80198;BME280;69517;52.030;7.106;2023-05-19T05:56:17;101767.00;;;22.62;66.09
80198;BME280;69517;52.030;7.106;2023-05-19T05:58:43;101764.81;;;22.69;66.04
80198;BME280;69517;52.030;7.106;2023-05-19T06:01:09;101763.75;;;22.73;65.99
80198;BME280;69517;52.030;7.106;2023-05-19T06:03:39;101763.75;;;22.73;65.84
80198;BME280;69517;52.030;7.106;2023-05-19T06:06:05;101765.47;;;22.74;65.80
80198;BME280;69517;52.030;7.106;2023-05-19T06:08:32;101762.06;;;22.72;65.76
80198;BME280;69517;52.030;7.106;2023-05-19T06:10:58;101759.16;;;22.77;65.57
80198;BME280;69517;52.030;7.106;2023-05-19T06:13:24;101757.28;;;22.79;65.69
80198;BME280;69517;52.030;7.106;2023-05-19T06:15:50;101759.06;;;22.78;65.82
80198;BME280;69517;52.030;7.106;2023-05-19T06:18:17;101750.63;;;22.72;65.52
80198;BME280;69517;52.030;7.106;2023-05-19T06:20:45;101751.91;;;22.64;65.81
80198;BME280;69517;52.030;7.106;2023-05-19T06:23:11;101757.13;;;22.66;65.34
80198;BME280;69517;52.030;7.106;2023-05-19T06:25:37;101758.97;;;22.64;65.05
80198;BME280;69517;52.030;7.106;2023-05-19T06:28:03;101759.91;;;22.63;65.22
80198;BME280;69517;52.030;7.106;2023-05-19T06:30:30;101759.81;;;22.64;65.38
80198;BME280;69517;52.030;7.106;2023-05-19T06:32:56;101764.25;;;22.64;65.40
80198;BME280;69517;52.030;7.106;2023-05-19T06:35:22;101758.13;;;22.63;65.49
80198;BME280;69517;52.030;7.106;2023-05-19T06:37:50;101761.03;;;22.59;65.44
80198;BME280;69517;52.030;7.106;2023-05-19T06:40:17;101761.97;;;22.58;65.45
80198;BME280;69517;52.030;7.106;2023-05-19T06:42:43;101765.66;;;22.55;65.63
80198;BME280;69517;52.030;7.106;2023-05-19T06:45:09;101762.25;;;22.53;65.60
80198;BME280;69517;52.030;7.106;2023-05-19T06:47:35;101757.97;;;22.51;65.43
80198;BME280;69517;52.030;7.106;2023-05-19T06:50:02;101760.72;;;22.49;65.59
80198;BME280;69517;52.030;7.106;2023-05-19T06:52:28;101761.66;;;22.48;65.66
80198;BME280;69517;52.030;7.106;2023-05-19T06:54:56;101757.31;;;22.47;65.63
80198;BME280;69517;52.030;7.106;2023-05-19T06:57:22;101762.53;;;22.49;65.60
80198;BME280;69517;52.030;7.106;2023-05-19T06:59:48;101763.44;;;22.48;65.73
80198;BME280;69517;52.030;7.106;2023-05-19T07:02:14;101767.09;;;22.45;65.80
80198;BME280;69517;52.030;7.106;2023-05-19T07:04:41;101758.34;;;22.45;65.65
80198;BME280;69517;52.030;7.106;2023-05-19T07:09:33;101764.81;;;22.39;65.03
80198;BME280;69517;52.030;7.106;2023-05-19T07:12:01;101763.22;;;22.37;64.81
80198;BME280;69517;52.030;7.106;2023-05-19T07:14:27;101767.56;;;22.38;64.53
80198;BME280;69517;52.030;7.106;2023-05-19T07:16:53;101753.44;;;22.39;64.46
80198;BME280;69517;52.030;7.106;2023-05-19T07:19:20;101766.34;;;22.43;64.41
80198;BME280;69517;52.030;7.106;2023-05-19T07:21:47;101763.81;;;22.42;64.37
80198;BME280;69517;52.030;7.106;2023-05-19T07:24:14;101758.34;;;22.45;64.47
80198;BME280;69517;52.030;7.106;2023-05-19T07:26:40;101756.66;;;22.44;64.26
80198;BME280;69517;52.030;7.106;2023-05-19T07:29:08;101754.03;;;22.44;64.55
80198;BME280;69517;52.030;7.106;2023-05-19T07:31:34;101754.78;;;22.46;64.59
80198;BME280;69517;52.030;7.106;2023-05-19T07:34:01;101762.44;;;22.50;64.61
80198;BME280;69517;52.030;7.106;2023-05-19T07:36:27;101748.16;;;22.39;64.80
80198;BME280;69517;52.030;7.106;2023-05-19T07:38:54;101758.72;;;22.23;64.40
80198;BME280;69517;52.030;7.106;2023-05-19T07:41:20;101748.81;;;22.12;63.04
80198;BME280;69517;52.030;7.106;2023-05-19T07:43:46;101749.41;;;22.17;62.64
80198;BME280;69517;52.030;7.106;2023-05-19T07:46:14;101751.69;;;22.23;63.09
80198;BME280;69517;52.030;7.106;2023-05-19T07:48:40;101750.22;;;22.34;62.78
80198;BME280;69517;52.030;7.106;2023-05-19T07:51:07;101749.13;;;22.38;62.74
80198;BME280;69517;52.030;7.106;2023-05-19T07:53:34;101742.88;;;22.39;62.82
80198;BME280;69517;52.030;7.106;2023-05-19T07:56:00;101743.56;;;22.42;62.65
80198;BME280;69517;52.030;7.106;2023-05-19T07:58:26;101752.06;;;22.47;62.77
80198;BME280;69517;52.030;7.106;2023-05-19T08:00:55;101748.28;;;22.51;62.59
80198;BME280;69517;52.030;7.106;2023-05-19T08:03:23;101746.78;;;22.47;62.83
80198;BME280;69517;52.030;7.106;2023-05-19T08:08:15;101747.06;;;22.43;63.33
80198;BME280;69517;52.030;7.106;2023-05-19T08:10:43;101743.56;;;22.42;63.58
80198;BME280;69517;52.030;7.106;2023-05-19T08:13:09;101730.56;;;22.39;63.63
80198;BME280;69517;52.030;7.106;2023-05-19T08:15:35;101736.69;;;22.40;63.66
80198;BME280;69517;52.030;7.106;2023-05-19T08:18:01;101732.69;;;22.33;63.88
80198;BME280;69517;52.030;7.106;2023-05-19T08:20:30;101727.44;;;22.33;63.81
80198;BME280;69517;52.030;7.106;2023-05-19T08:22:56;101737.88;;;22.34;64.09
80198;BME280;69517;52.030;7.106;2023-05-19T08:25:22;101733.56;;;22.33;63.93
80198;BME280;69517;52.030;7.106;2023-05-19T08:27:49;101732.81;;;22.31;64.00
80198;BME280;69517;52.030;7.106;2023-05-19T08:30:16;101724.78;;;22.33;63.88
80198;BME280;69517;52.030;7.106;2023-05-19T08:32:42;101731.03;;;22.32;63.95
80198;BME280;69517;52.030;7.106;2023-05-19T08:35:08;101722.72;;;22.23;64.20
80198;BME280;69517;52.030;7.106;2023-05-19T08:37:36;101720.84;;;22.25;63.72
80198;BME280;69517;52.030;7.106;2023-05-19T08:40:03;101717.34;;;22.25;63.67
80198;BME280;69517;52.030;7.106;2023-05-19T08:42:29;101716.16;;;22.31;64.21
80198;BME280;69517;52.030;7.106;2023-05-19T08:44:56;101719.63;;;22.31;63.90
80198;BME280;69517;52.030;7.106;2023-05-19T08:47:23;101718.59;;;22.34;63.70
80198;BME280;69517;52.030;7.106;2023-05-19T08:49:51;101715.09;;;22.33;63.50
80198;BME280;69517;52.030;7.106;2023-05-19T08:52:20;101705.41;;;22.34;63.70
80198;BME280;69517;52.030;7.106;2023-05-19T08:54:57;101710.69;;;22.34;63.21
80198;BME280;69517;52.030;7.106;2023-05-19T08:57:26;101706.34;;;22.33;62.89
80198;BME280;69517;52.030;7.106;2023-05-19T08:59:52;101700.25;;;22.32;62.75
80198;BME280;69517;52.030;7.106;2023-05-19T09:02:19;101697.72;;;22.31;63.24
80198;BME280;69517;52.030;7.106;2023-05-19T09:04:46;101695.25;;;22.27;62.98
80198;BME280;69517;52.030;7.106;2023-05-19T09:07:13;101694.81;;;22.35;62.71
80198;BME280;69517;52.030;7.106;2023-05-19T09:09:39;101696.50;;;22.36;62.67
80198;BME280;69517;52.030;7.106;2023-05-19T09:12:09;101691.16;;;22.38;62.51
80198;BME280;69517;52.030;7.106;2023-05-19T09:14:35;101690.47;;;22.34;62.40
80198;BME280;69517;52.030;7.106;2023-05-19T09:17:01;101692.25;;;22.34;62.43
80198;BME280;69517;52.030;7.106;2023-05-19T09:19:28;101692.59;;;22.27;62.22
80198;BME280;69517;52.030;7.106;2023-05-19T09:21:56;101686.13;;;22.33;61.53
80198;BME280;69517;52.030;7.106;2023-05-19T09:24:23;101681.53;;;22.37;61.89
80198;BME280;69517;52.030;7.106;2023-05-19T09:26:50;101683.25;;;22.38;61.82
80198;BME280;69517;52.030;7.106;2023-05-19T09:29:18;101685.78;;;22.39;61.78
80198;BME280;69517;52.030;7.106;2023-05-19T09:31:47;101683.06;;;22.41;62.03
80198;BME280;69517;52.030;7.106;2023-05-19T09:34:15;101683.13;;;22.39;62.00
80198;BME280;69517;52.030;7.106;2023-05-19T09:36:41;101688.31;;;22.41;61.93
80198;BME280;69517;52.030;7.106;2023-05-19T09:41:34;101665.53;;;22.40;62.21
80198;BME280;69517;52.030;7.106;2023-05-19T09:44:00;101661.22;;;22.39;62.48
80198;BME280;69517;52.030;7.106;2023-05-19T09:46:28;101663.19;;;22.35;62.61
80198;BME280;69517;52.030;7.106;2023-05-19T09:48:55;101665.53;;;22.40;62.43
80198;BME280;69517;52.030;7.106;2023-05-19T09:51:22;101655.84;;;22.40;62.48
80198;BME280;69517;52.030;7.106;2023-05-19T09:53:48;101661.22;;;22.39;62.46
80198;BME280;69517;52.030;7.106;2023-05-19T09:56:15;101664.81;;;22.38;62.57
80198;BME280;69517;52.030;7.106;2023-05-19T09:58:41;101663.84;;;22.39;62.85
80198;BME280;69517;52.030;7.106;2023-05-19T10:01:08;101664.59;;;22.41;62.66
80198;BME280;69517;52.030;7.106;2023-05-19T10:03:35;101668.44;;;22.35;62.79
80198;BME280;69517;52.030;7.106;2023-05-19T10:06:03;101666.00;;;22.32;63.06
80198;BME280;69517;52.030;7.106;2023-05-19T10:08:31;101667.81;;;22.32;62.92
80198;BME280;69517;52.030;7.106;2023-05-19T10:10:58;101657.25;;;22.32;62.66
80198;BME280;69517;52.030;7.106;2023-05-19T10:13:25;101657.06;;;22.35;62.73
80198;BME280;69517;52.030;7.106;2023-05-19T10:15:52;101662.91;;;22.40;62.45
80198;BME280;69517;52.030;7.106;2023-05-19T10:18:19;101655.00;;;22.40;62.53
80198;BME280;69517;52.030;7.106;2023-05-19T10:20:47;101654.84;;;22.43;62.63
80198;BME280;69517;52.030;7.106;2023-05-19T10:23:15;101652.94;;;22.45;62.79
80198;BME280;69517;52.030;7.106;2023-05-19T10:25:41;101656.34;;;22.47;62.54
80198;BME280;69517;52.030;7.106;2023-05-19T10:28:08;101642.41;;;22.45;62.10
80198;BME280;69517;52.030;7.106;2023-05-19T10:30:36;101644.81;;;22.34;62.00
80198;BME280;69517;52.030;7.106;2023-05-19T10:33:03;101648.50;;;22.31;61.12
80198;BME280;69517;52.030;7.106;2023-05-19T10:35:58;101636.53;;;22.25;60.27
80198;BME280;69517;52.030;7.106;2023-05-19T10:38:33;101634.06;;;22.22;61.28
80198;BME280;69517;52.030;7.106;2023-05-19T10:41:02;101635.41;;;22.30;60.65
80198;BME280;69517;52.030;7.106;2023-05-19T10:43:33;101628.38;;;22.30;60.37
80198;BME280;69517;52.030;7.106;2023-05-19T10:46:02;101629.03;;;22.34;59.82
80198;BME280;69517;52.030;7.106;2023-05-19T10:48:32;101634.97;;;22.37;60.89
80198;BME280;69517;52.030;7.106;2023-05-19T10:50:59;101629.88;;;22.34;61.71
80198;BME280;69517;52.030;7.106;2023-05-19T10:53:29;101627.22;;;22.34;62.19
80198;BME280;69517;52.030;7.106;2023-05-19T10:55:55;101630.56;;;22.38;62.03
80198;BME280;69517;52.030;7.106;2023-05-19T10:58:35;101626.78;;;22.42;62.34
80198;BME280;69517;52.030;7.106;2023-05-19T11:01:05;101621.59;;;22.40;62.11
80198;BME280;69517;52.030;7.106;2023-05-19T11:03:35;101625.00;;;22.42;61.94
80198;BME280;69517;52.030;7.106;2023-05-19T11:06:24;101619.81;;;22.41;61.85
80198;BME280;69517;52.030;7.106;2023-05-19T11:08:51;101613.03;;;22.37;61.63
80198;BME280;69517;52.030;7.106;2023-05-19T11:11:18;101613.22;;;22.34;61.82
80198;BME280;69517;52.030;7.106;2023-05-19T11:13:45;101613.22;;;22.34;61.46
80198;BME280;69517;52.030;7.106;2023-05-19T11:16:12;101610.41;;;22.37;61.43
80198;BME280;69517;52.030;7.106;2023-05-19T11:18:39;101612.59;;;22.44;61.46
80198;BME280;69517;52.030;7.106;2023-05-19T11:21:05;101611.63;;;22.45;61.20
80198;BME280;69517;52.030;7.106;2023-05-19T11:23:35;101604.69;;;22.44;61.59
80198;BME280;69517;52.030;7.106;2023-05-19T11:26:02;101611.63;;;22.45;61.41
80198;BME280;69517;52.030;7.106;2023-05-19T11:28:29;101605.50;;;22.45;61.76
80198;BME280;69517;52.030;7.106;2023-05-19T11:30:55;101605.50;;;22.45;61.60
80198;BME280;69517;52.030;7.106;2023-05-19T11:33:24;101606.34;;;22.45;62.10
80198;BME280;69517;52.030;7.106;2023-05-19T11:35:51;101608.91;;;22.47;61.88
80198;BME280;69517;52.030;7.106;2023-05-19T11:38:18;101608.91;;;22.47;62.03
80198;BME280;69517;52.030;7.106;2023-05-19T11:40:46;101607.13;;;22.47;62.23
80198;BME280;69517;52.030;7.106;2023-05-19T11:43:13;101600.16;;;22.46;62.31
80198;BME280;69517;52.030;7.106;2023-05-19T11:45:40;101595.72;;;22.47;62.33
80198;BME280;69517;52.030;7.106;2023-05-19T11:48:09;101600.06;;;22.48;62.30
80198;BME280;69517;52.030;7.106;2023-05-19T11:50:35;101612.41;;;22.47;62.48
80198;BME280;69517;52.030;7.106;2023-05-19T11:53:02;101600.91;;;22.48;62.47
80198;BME280;69517;52.030;7.106;2023-05-19T11:55:28;101594.16;;;22.44;62.35
80198;BME280;69517;52.030;7.106;2023-05-19T11:57:59;101594.75;;;22.19;57.97
80198;BME280;69517;52.030;7.106;2023-05-19T12:00:26;101601.28;;;21.98;56.85
80198;BME280;69517;52.030;7.106;2023-05-19T12:02:52;101599.72;;;21.94;55.82
80198;BME280;69517;52.030;7.106;2023-05-19T12:05:19;101588.16;;;22.12;56.08
80198;BME280;69517;52.030;7.106;2023-05-19T12:07:46;101580.38;;;22.25;57.18
80198;BME280;69517;52.030;7.106;2023-05-19T12:10:13;101584.78;;;22.39;57.56
80198;BME280;69517;52.030;7.106;2023-05-19T12:12:40;101575.03;;;22.41;57.72
80198;BME280;69517;52.030;7.106;2023-05-19T12:15:10;101586.25;;;22.44;57.80
80198;BME280;69517;52.030;7.106;2023-05-19T12:17:36;101589.69;;;22.45;58.03
80198;BME280;69517;52.030;7.106;2023-05-19T12:20:03;101594.81;;;22.48;58.67
80198;BME280;69517;52.030;7.106;2023-05-19T12:22:29;101580.31;;;22.55;58.55
80198;BME280;69517;52.030;7.106;2023-05-19T12:24:56;101584.53;;;22.57;58.95
80198;BME280;69517;52.030;7.106;2023-05-19T12:27:23;101579.19;;;22.59;59.23
80198;BME280;69517;52.030;7.106;2023-05-19T12:29:50;101572.97;;;22.60;59.33
80198;BME280;69517;52.030;7.106;2023-05-19T12:32:18;101580.88;;;22.60;59.70
80198;BME280;69517;52.030;7.106;2023-05-19T12:34:47;101576.38;;;22.62;59.89
80198;BME280;69517;52.030;7.106;2023-05-19T12:37:14;101572.75;;;22.63;59.88
80198;BME280;69517;52.030;7.106;2023-05-19T12:39:41;101576.25;;;22.63;60.19
80198;BME280;69517;52.030;7.106;2023-05-19T12:42:07;101571.09;;;22.62;60.41
80198;BME280;69517;52.030;7.106;2023-05-19T12:44:35;101571.09;;;22.62;60.42
80198;BME280;69517;52.030;7.106;2023-05-19T12:47:03;101564.13;;;22.61;60.67
80198;BME280;69517;52.030;7.106;2023-05-19T12:49:31;101563.19;;;22.62;60.65
80198;BME280;69517;52.030;7.106;2023-05-19T12:51:59;101557.81;;;22.63;61.05
80198;BME280;69517;52.030;7.106;2023-05-19T12:54:25;101557.91;;;22.62;61.33
80198;BME280;69517;52.030;7.106;2023-05-19T12:56:54;101562.34;;;22.61;61.17
80198;BME280;69517;52.030;7.106;2023-05-19T12:59:22;101560.56;;;22.62;61.60